• Join FlightAware (Why Join?)
  • Login
  • US Flag 
11:19PM EDT


 

Airport Tracker/Info


-or-


 

Live Flight TrackerFlight Track Log ✈ CPT8773 ✈ 01-Oct-2013 ✈ KCPR - KCOD

Flight Track Log - Related Links

Times and Time Zones

All times are in EDT time to prevent confusion due to time zone crossing. See the CPT8773 flight status page for this flight to view local times or setup timezone preferences in your user account.

Time Position Orientation Groundspeed Altitude Reporting Facility
EDT Latitude Longitude Course Direction KTS MPH feet Rate Location/Type
09:31AM 43.0189 -106.4875 349° North 122 140 7,800  Level Salt Lake Center
09:32AM 43.0442 -106.5281 310° West 124 143 8,400 540 Climbing Salt Lake Center
09:33AM 43.0675 -106.5633 312° West 127 146 9,000 540 Climbing Salt Lake Center
09:34AM 43.0911 -106.5978 313° West 129 148 9,500 540 Climbing Salt Lake Center
09:35AM 43.0557 -106.6896 307° West  Level Estimated
09:35AM 43.1142 -106.6411 306° West 128 147 10,200  Level Salt Lake Center
09:36AM 43.0919 -106.6991 349° North  Level FlightAware Approximate
09:36AM 43.1358 -106.6758 311° West 126 145 10,600  Level Salt Lake Center
09:37AM 43.1614 -106.7100 316° Northwest 131 151 11,000 360 Climbing Salt Lake Center
09:38AM 43.1875 -106.7533 310° West 133 153 11,400 300 Climbing Salt Lake Center
09:39AM 43.2125 -106.7878 315° West 134 154 11,700 300 Climbing Salt Lake Center
09:40AM 43.2397 -106.8292 312° West 131 151 12,100 180 Climbing Salt Lake Center
09:41AM 43.2622 -106.8647 311° West 130 150 12,100 -60 Level Salt Lake Center
09:42AM 43.2867 -106.9019 312° West 135 155 12,000 -60 Descending Salt Lake Center
09:43AM 43.3125 -106.9447 310° West 134 154 12,000  Level Salt Lake Center
09:44AM 43.3358 -106.9822 311° West 129 148 12,000  Level Salt Lake Center
09:45AM 43.3594 -107.0183 312° West 129 148 12,000  Level Salt Lake Center
09:46AM 43.3842 -107.0553 313° West 131 151 12,000  Level Salt Lake Center
09:47AM 43.4069 -107.0914 311° West 127 146 12,000  Level Salt Lake Center
09:48AM 43.4286 -107.1256 311° West 120 138 12,000  Level Salt Lake Center
09:49AM 43.4511 -107.1631 310° West 124 143 12,000  Level Salt Lake Center
09:50AM 43.4756 -107.1953 316° Northwest 124 143 12,000  Level Salt Lake Center
09:51AM 43.5022 -107.2372 311° West 121 139 12,000  Level Salt Lake Center
09:52AM 43.5239 -107.2728 310° West 121 139 12,000  Level Salt Lake Center
09:53AM 43.5481 -107.3072 314° West 124 143 12,000 -60 Level Salt Lake Center
09:54AM 43.5703 -107.3428 311° West 123 142 11,900 -300 Descending Salt Lake Center
09:55AM 43.5958 -107.3825 312° West 132 152 11,500 -360 Descending Salt Lake Center
09:56AM 43.6200 -107.4258 308° West 140 161 11,200 -300 Descending Salt Lake Center
09:57AM 43.6436 -107.4675 308° West 139 160 11,000 -240 Descending Salt Lake Center
09:58AM 43.6700 -107.5111 310° West 142 163 10,800 -240 Descending Salt Lake Center
09:59AM 43.6950 -107.5550 308° West 144 166 10,600 -180 Descending Salt Lake Center
10:00AM 43.7219 -107.5994 310° West 147 169 10,500 -60 Descending Salt Lake Center
10:01AM 43.7494 -107.6517 306° West 145 167 10,500  Level Salt Lake Center
10:02AM 43.7733 -107.6950 307° West 143 165 10,500  Level Salt Lake Center
10:03AM 43.7989 -107.7389 309° West 144 166 10,500  Level Salt Lake Center
10:04AM 43.8247 -107.7819 310° West 145 167 10,500  Level Salt Lake Center
10:05AM 43.8486 -107.8244 308° West 144 166 10,500  Level Salt Lake Center
10:06AM 43.8719 -107.8667 307° West 141 162 10,500  Level Salt Lake Center
10:07AM 43.8958 -107.9061 310° West 138 159 10,500  Level Salt Lake Center
10:08AM 43.9192 -107.9492 307° West 137 158 10,500  Level Salt Lake Center
10:09AM 43.9436 -107.9925 308° West 139 160 10,500  Level Salt Lake Center
10:10AM 43.9750 -108.0467 309° West 145 167 10,500  Level Salt Lake Center
10:11AM 44.0017 -108.0939 308° West 149 171 10,500  Level Salt Lake Center
10:13AM 44.0272 -108.1383 309° West 150 173 10,500  Level Salt Lake Center
10:14AM 44.0517 -108.1817 308° West 147 169 10,500  Level Salt Lake Center
10:15AM 44.0753 -108.2236 308° West 143 165 10,500  Level Salt Lake Center
10:16AM 44.0992 -108.2667 308° West 141 162 10,500  Level Salt Lake Center
10:17AM 44.1219 -108.3089 307° West 139 160 10,500  Level Salt Lake Center
10:18AM 44.1456 -108.3494 309° West 138 159 10,500  Level Salt Lake Center
10:19AM 44.1692 -108.3917 308° West 137 158 10,500 -120 Level Salt Lake Center
10:20AM 44.1989 -108.4442 308° West 140 161 10,300 -240 Descending Salt Lake Center
10:21AM 44.2242 -108.4886 308° West 143 165 10,100 -300 Descending Salt Lake Center
10:22AM 44.2494 -108.5319 309° West 144 166 9,800 -300 Descending Salt Lake Center
10:23AM 44.2725 -108.5769 306° West 143 165 9,600 -300 Descending Salt Lake Center
10:24AM 44.2975 -108.6208 309° West 144 166 9,300 -300 Descending Salt Lake Center
10:25AM 44.3228 -108.6650 309° West 145 167 9,000 -300 Descending Salt Lake Center
10:26AM 44.3481 -108.7125 307° West 147 169 8,800 -240 Descending Salt Lake Center
10:27AM 44.3747 -108.7594 308° West 150 173 8,600 -180 Descending Salt Lake Center
10:28AM 44.4053 -108.8150 308° West 151 174 8,500 -60 Descending Salt Lake Center
10:29AM 44.4306 -108.8619 307° West 151 174 8,500  Level Salt Lake Center